sensor_id;sensor_type;location;lat;lon;timestamp;temperature;humidity
1021;DHT22;499;42.648;23.270;2022-12-07T00:01:17;5.00;99.90
1021;DHT22;499;42.648;23.270;2022-12-07T00:03:45;4.90;99.90
1021;DHT22;499;42.648;23.270;2022-12-07T00:06:14;5.10;99.90
1021;DHT22;499;42.648;23.270;2022-12-07T00:08:44;5.20;99.90
1021;DHT22;499;42.648;23.270;2022-12-07T00:11:12;5.20;99.90
1021;DHT22;499;42.648;23.270;2022-12-07T00:13:40;5.20;99.90
1021;DHT22;499;42.648;23.270;2022-12-07T00:16:09;5.30;99.90
1021;DHT22;499;42.648;23.270;2022-12-07T00:18:37;5.20;99.90
1021;DHT22;499;42.648;23.270;2022-12-07T00:21:05;5.30;99.90
1021;DHT22;499;42.648;23.270;2022-12-07T00:23:33;5.30;99.90
1021;DHT22;499;42.648;23.270;2022-12-07T00:26:06;5.20;99.90
1021;DHT22;499;42.648;23.270;2022-12-07T00:28:33;5.20;99.90
1021;DHT22;499;42.648;23.270;2022-12-07T00:31:02;5.10;99.90
1021;DHT22;499;42.648;23.270;2022-12-07T00:33:29;5.10;99.90
1021;DHT22;499;42.648;23.270;2022-12-07T00:35:57;5.10;99.90
1021;DHT22;499;42.648;23.270;2022-12-07T00:38:24;5.20;99.90
1021;DHT22;499;42.648;23.270;2022-12-07T00:40:55;5.20;99.90
1021;DHT22;499;42.648;23.270;2022-12-07T00:43:24;5.10;99.90
1021;DHT22;499;42.648;23.270;2022-12-07T00:45:51;5.20;99.90
1021;DHT22;499;42.648;23.270;2022-12-07T00:48:18;5.20;99.90
1021;DHT22;499;42.648;23.270;2022-12-07T00:50:45;5.20;99.90
1021;DHT22;499;42.648;23.270;2022-12-07T00:53:13;5.20;99.90
1021;DHT22;499;42.648;23.270;2022-12-07T00:55:40;5.10;99.90
1021;DHT22;499;42.648;23.270;2022-12-07T00:58:07;5.00;99.90
1021;DHT22;499;42.648;23.270;2022-12-07T01:00:37;4.90;99.90
1021;DHT22;499;42.648;23.270;2022-12-07T01:03:05;5.10;99.90
1021;DHT22;499;42.648;23.270;2022-12-07T01:05:32;5.10;99.90
1021;DHT22;499;42.648;23.270;2022-12-07T01:07:59;5.00;99.90
1021;DHT22;499;42.648;23.270;2022-12-07T01:10:27;5.00;99.90
1021;DHT22;499;42.648;23.270;2022-12-07T01:12:55;4.90;99.90
1021;DHT22;499;42.648;23.270;2022-12-07T01:15:23;5.30;99.90
1021;DHT22;499;42.648;23.270;2022-12-07T01:17:51;5.10;99.90
1021;DHT22;499;42.648;23.270;2022-12-07T01:20:20;5.20;99.90
1021;DHT22;499;42.648;23.270;2022-12-07T01:22:47;5.20;99.90
1021;DHT22;499;42.648;23.270;2022-12-07T01:25:14;5.30;99.90
1021;DHT22;499;42.648;23.270;2022-12-07T01:27:41;5.40;99.90
1021;DHT22;499;42.648;23.270;2022-12-07T01:30:11;5.40;99.90
1021;DHT22;499;42.648;23.270;2022-12-07T01:32:38;5.20;99.90
1021;DHT22;499;42.648;23.270;2022-12-07T01:35:08;5.10;99.90
1021;DHT22;499;42.648;23.270;2022-12-07T01:37:36;5.20;99.90
1021;DHT22;499;42.648;23.270;2022-12-07T01:40:04;5.10;99.90
1021;DHT22;499;42.648;23.270;2022-12-07T01:42:32;5.20;99.90
1021;DHT22;499;42.648;23.270;2022-12-07T01:48:09;5.10;99.90
1021;DHT22;499;42.648;23.270;2022-12-07T01:50:39;5.10;99.90
1021;DHT22;499;42.648;23.270;2022-12-07T01:53:09;5.00;99.90
1021;DHT22;499;42.648;23.270;2022-12-07T01:55:40;5.00;99.90
1021;DHT22;499;42.648;23.270;2022-12-07T01:58:09;5.00;99.90
1021;DHT22;499;42.648;23.270;2022-12-07T02:00:37;5.10;99.90
1021;DHT22;499;42.648;23.270;2022-12-07T02:03:08;5.10;99.90
1021;DHT22;499;42.648;23.270;2022-12-07T02:05:40;5.20;99.90
1021;DHT22;499;42.648;23.270;2022-12-07T02:08:07;5.10;99.90
1021;DHT22;499;42.648;23.270;2022-12-07T02:10:35;5.10;99.90
1021;DHT22;499;42.648;23.270;2022-12-07T02:13:05;5.20;99.90
1021;DHT22;499;42.648;23.270;2022-12-07T02:15:41;5.20;99.90
1021;DHT22;499;42.648;23.270;2022-12-07T02:18:17;5.10;99.90
1021;DHT22;499;42.648;23.270;2022-12-07T02:20:55;5.00;99.90
1021;DHT22;499;42.648;23.270;2022-12-07T02:23:53;4.90;99.90
1021;DHT22;499;42.648;23.270;2022-12-07T02:29:29;5.10;99.90
1021;DHT22;499;42.648;23.270;2022-12-07T02:32:04;4.90;99.90
1021;DHT22;499;42.648;23.270;2022-12-07T02:34:42;5.00;99.90
1021;DHT22;499;42.648;23.270;2022-12-07T02:37:21;5.10;99.90
1021;DHT22;499;42.648;23.270;2022-12-07T02:39:55;5.10;99.90
1021;DHT22;499;42.648;23.270;2022-12-07T02:42:28;5.20;99.90
1021;DHT22;499;42.648;23.270;2022-12-07T02:44:59;5.10;99.90
1021;DHT22;499;42.648;23.270;2022-12-07T02:47:29;5.00;99.90
1021;DHT22;499;42.648;23.270;2022-12-07T02:49:56;4.90;99.90
1021;DHT22;499;42.648;23.270;2022-12-07T02:52:23;4.80;99.90
1021;DHT22;499;42.648;23.270;2022-12-07T02:54:50;4.80;99.90
1021;DHT22;499;42.648;23.270;2022-12-07T02:57:29;4.90;99.90
1021;DHT22;499;42.648;23.270;2022-12-07T03:00:04;4.90;99.90
1021;DHT22;499;42.648;23.270;2022-12-07T03:02:41;4.90;99.90
1021;DHT22;499;42.648;23.270;2022-12-07T03:05:20;4.80;99.90
1021;DHT22;499;42.648;23.270;2022-12-07T03:07:58;4.90;99.90
1021;DHT22;499;42.648;23.270;2022-12-07T03:10:34;4.90;99.90
1021;DHT22;499;42.648;23.270;2022-12-07T03:13:05;4.90;99.90
1021;DHT22;499;42.648;23.270;2022-12-07T03:15:42;4.60;99.90
1021;DHT22;499;42.648;23.270;2022-12-07T03:18:12;4.60;99.90
1021;DHT22;499;42.648;23.270;2022-12-07T03:20:44;4.60;99.90
1021;DHT22;499;42.648;23.270;2022-12-07T03:23:12;4.70;99.90
1021;DHT22;499;42.648;23.270;2022-12-07T03:25:47;4.70;99.90
1021;DHT22;499;42.648;23.270;2022-12-07T03:28:18;4.50;99.90
1021;DHT22;499;42.648;23.270;2022-12-07T03:30:52;4.60;99.90
1021;DHT22;499;42.648;23.270;2022-12-07T03:33:25;4.40;99.90
1021;DHT22;499;42.648;23.270;2022-12-07T03:35:58;4.30;99.90
1021;DHT22;499;42.648;23.270;2022-12-07T03:38:31;4.40;99.90
1021;DHT22;499;42.648;23.270;2022-12-07T03:41:01;4.50;99.90
1021;DHT22;499;42.648;23.270;2022-12-07T03:43:33;4.50;99.90
1021;DHT22;499;42.648;23.270;2022-12-07T03:46:11;4.50;99.90
1021;DHT22;499;42.648;23.270;2022-12-07T03:48:44;4.50;99.90
1021;DHT22;499;42.648;23.270;2022-12-07T03:51:17;4.40;99.90
1021;DHT22;499;42.648;23.270;2022-12-07T03:53:52;4.40;99.90
1021;DHT22;499;42.648;23.270;2022-12-07T03:56:22;4.40;99.90
1021;DHT22;499;42.648;23.270;2022-12-07T03:58:50;4.50;99.90
1021;DHT22;499;42.648;23.270;2022-12-07T04:01:20;4.50;99.90
1021;DHT22;499;42.648;23.270;2022-12-07T04:03:47;4.60;99.90
1021;DHT22;499;42.648;23.270;2022-12-07T04:06:14;4.70;99.90
1021;DHT22;499;42.648;23.270;2022-12-07T04:08:41;4.50;99.90
1021;DHT22;499;42.648;23.270;2022-12-07T04:11:08;4.50;99.90
1021;DHT22;499;42.648;23.270;2022-12-07T04:13:35;4.50;99.90
1021;DHT22;499;42.648;23.270;2022-12-07T04:16:24;4.70;99.90
1021;DHT22;499;42.648;23.270;2022-12-07T04:18:51;4.70;99.90
1021;DHT22;499;42.648;23.270;2022-12-07T04:21:18;4.70;99.90
1021;DHT22;499;42.648;23.270;2022-12-07T04:23:45;4.70;99.90
1021;DHT22;499;42.648;23.270;2022-12-07T04:26:12;4.70;99.90
1021;DHT22;499;42.648;23.270;2022-12-07T04:28:39;4.70;99.90
1021;DHT22;499;42.648;23.270;2022-12-07T04:31:06;4.50;99.90
1021;DHT22;499;42.648;23.270;2022-12-07T04:33:35;4.40;99.90
1021;DHT22;499;42.648;23.270;2022-12-07T04:36:02;4.40;99.90
1021;DHT22;499;42.648;23.270;2022-12-07T04:38:29;4.50;99.90
1021;DHT22;499;42.648;23.270;2022-12-07T04:40:56;4.40;99.90
1021;DHT22;499;42.648;23.270;2022-12-07T04:43:23;4.40;99.90
1021;DHT22;499;42.648;23.270;2022-12-07T04:45:50;4.40;99.90
1021;DHT22;499;42.648;23.270;2022-12-07T04:48:17;4.30;99.90
1021;DHT22;499;42.648;23.270;2022-12-07T04:50:47;4.20;99.90
1021;DHT22;499;42.648;23.270;2022-12-07T04:53:15;4.20;99.90
1021;DHT22;499;42.648;23.270;2022-12-07T04:55:42;4.30;99.90
1021;DHT22;499;42.648;23.270;2022-12-07T04:58:10;4.20;99.90
1021;DHT22;499;42.648;23.270;2022-12-07T05:00:38;4.10;99.90
1021;DHT22;499;42.648;23.270;2022-12-07T05:03:05;4.10;99.90
1021;DHT22;499;42.648;23.270;2022-12-07T05:05:32;4.10;99.90
1021;DHT22;499;42.648;23.270;2022-12-07T05:08:00;4.30;99.90
1021;DHT22;499;42.648;23.270;2022-12-07T05:10:28;4.30;99.90
1021;DHT22;499;42.648;23.270;2022-12-07T05:12:55;4.10;99.90
1021;DHT22;499;42.648;23.270;2022-12-07T05:15:22;4.20;99.90
1021;DHT22;499;42.648;23.270;2022-12-07T05:17:49;4.10;99.90
1021;DHT22;499;42.648;23.270;2022-12-07T05:20:18;4.20;99.90
1021;DHT22;499;42.648;23.270;2022-12-07T05:22:44;4.30;99.90
1021;DHT22;499;42.648;23.270;2022-12-07T05:25:13;4.40;99.90
1021;DHT22;499;42.648;23.270;2022-12-07T05:27:40;4.30;99.90
1021;DHT22;499;42.648;23.270;2022-12-07T05:30:08;4.40;99.90
1021;DHT22;499;42.648;23.270;2022-12-07T05:32:35;4.30;99.90
1021;DHT22;499;42.648;23.270;2022-12-07T05:35:03;4.30;99.90
1021;DHT22;499;42.648;23.270;2022-12-07T05:37:30;4.40;99.90
1021;DHT22;499;42.648;23.270;2022-12-07T05:39:57;4.40;99.90
1021;DHT22;499;42.648;23.270;2022-12-07T05:42:25;4.50;99.90
1021;DHT22;499;42.648;23.270;2022-12-07T05:44:52;4.50;99.90
1021;DHT22;499;42.648;23.270;2022-12-07T05:47:19;4.50;99.90
1021;DHT22;499;42.648;23.270;2022-12-07T05:49:46;4.50;99.90
1021;DHT22;499;42.648;23.270;2022-12-07T05:52:14;4.50;99.90
1021;DHT22;499;42.648;23.270;2022-12-07T05:54:41;4.60;99.90
1021;DHT22;499;42.648;23.270;2022-12-07T05:57:08;4.60;99.90
1021;DHT22;499;42.648;23.270;2022-12-07T05:59:36;4.50;99.90
1021;DHT22;499;42.648;23.270;2022-12-07T06:02:04;4.60;99.90
1021;DHT22;499;42.648;23.270;2022-12-07T06:04:33;4.60;99.90
1021;DHT22;499;42.648;23.270;2022-12-07T06:07:01;4.50;99.90
1021;DHT22;499;42.648;23.270;2022-12-07T06:09:28;4.40;99.90
1021;DHT22;499;42.648;23.270;2022-12-07T06:11:56;4.50;99.90
1021;DHT22;499;42.648;23.270;2022-12-07T06:14:43;4.50;99.90
1021;DHT22;499;42.648;23.270;2022-12-07T06:17:10;4.70;99.90
1021;DHT22;499;42.648;23.270;2022-12-07T06:19:38;4.80;99.90
1021;DHT22;499;42.648;23.270;2022-12-07T06:22:05;4.80;99.90
1021;DHT22;499;42.648;23.270;2022-12-07T06:24:33;4.70;99.90
1021;DHT22;499;42.648;23.270;2022-12-07T06:27:00;4.70;99.90
1021;DHT22;499;42.648;23.270;2022-12-07T06:29:27;4.80;99.90
1021;DHT22;499;42.648;23.270;2022-12-07T06:31:56;5.00;99.90
1021;DHT22;499;42.648;23.270;2022-12-07T06:34:23;4.90;99.90
1021;DHT22;499;42.648;23.270;2022-12-07T06:36:51;5.00;99.90
1021;DHT22;499;42.648;23.270;2022-12-07T06:39:22;5.20;99.90
1021;DHT22;499;42.648;23.270;2022-12-07T06:41:49;5.10;99.90
1021;DHT22;499;42.648;23.270;2022-12-07T06:44:17;5.20;99.90
1021;DHT22;499;42.648;23.270;2022-12-07T06:46:44;5.40;99.90
1021;DHT22;499;42.648;23.270;2022-12-07T06:49:13;5.50;99.90
1021;DHT22;499;42.648;23.270;2022-12-07T06:51:40;5.30;99.90
1021;DHT22;499;42.648;23.270;2022-12-07T06:54:08;5.30;99.90
1021;DHT22;499;42.648;23.270;2022-12-07T06:56:35;5.20;99.90
1021;DHT22;499;42.648;23.270;2022-12-07T06:59:03;5.10;99.90
1021;DHT22;499;42.648;23.270;2022-12-07T07:01:31;5.20;99.90
1021;DHT22;499;42.648;23.270;2022-12-07T07:03:58;5.30;99.90
1021;DHT22;499;42.648;23.270;2022-12-07T07:06:27;5.40;99.90
1021;DHT22;499;42.648;23.270;2022-12-07T07:08:55;5.30;99.90
1021;DHT22;499;42.648;23.270;2022-12-07T07:11:22;5.40;99.90
1021;DHT22;499;42.648;23.270;2022-12-07T07:13:49;5.40;99.90
1021;DHT22;499;42.648;23.270;2022-12-07T07:16:16;5.50;99.90
1021;DHT22;499;42.648;23.270;2022-12-07T07:18:43;5.60;99.90
1021;DHT22;499;42.648;23.270;2022-12-07T07:21:10;5.60;99.90
1021;DHT22;499;42.648;23.270;2022-12-07T07:23:39;5.40;99.90
1021;DHT22;499;42.648;23.270;2022-12-07T07:26:06;5.30;99.90
1021;DHT22;499;42.648;23.270;2022-12-07T07:28:33;5.20;99.90
1021;DHT22;499;42.648;23.270;2022-12-07T07:31:00;5.20;99.90
1021;DHT22;499;42.648;23.270;2022-12-07T07:33:27;5.20;99.90
1021;DHT22;499;42.648;23.270;2022-12-07T07:35:54;5.40;99.90
1021;DHT22;499;42.648;23.270;2022-12-07T07:38:21;5.40;99.90
1021;DHT22;499;42.648;23.270;2022-12-07T07:40:50;5.40;99.90
1021;DHT22;499;42.648;23.270;2022-12-07T07:43:16;5.40;99.90
1021;DHT22;499;42.648;23.270;2022-12-07T07:45:44;5.40;99.90
1021;DHT22;499;42.648;23.270;2022-12-07T07:48:12;5.10;99.90
1021;DHT22;499;42.648;23.270;2022-12-07T07:50:39;5.60;99.90
1021;DHT22;499;42.648;23.270;2022-12-07T07:53:06;5.60;99.90
1021;DHT22;499;42.648;23.270;2022-12-07T07:55:33;5.50;99.90
1021;DHT22;499;42.648;23.270;2022-12-07T07:58:02;5.50;99.90
1021;DHT22;499;42.648;23.270;2022-12-07T08:00:29;5.40;99.90
1021;DHT22;499;42.648;23.270;2022-12-07T08:02:56;5.50;99.90
1021;DHT22;499;42.648;23.270;2022-12-07T08:05:24;5.60;99.90
1021;DHT22;499;42.648;23.270;2022-12-07T08:07:51;5.60;99.90
1021;DHT22;499;42.648;23.270;2022-12-07T08:10:19;5.90;99.90
1021;DHT22;499;42.648;23.270;2022-12-07T08:12:46;5.70;99.90
1021;DHT22;499;42.648;23.270;2022-12-07T08:15:31;5.70;99.90
1021;DHT22;499;42.648;23.270;2022-12-07T08:17:59;5.80;99.90
1021;DHT22;499;42.648;23.270;2022-12-07T08:20:26;5.90;99.90
1021;DHT22;499;42.648;23.270;2022-12-07T08:22:53;5.90;99.90
1021;DHT22;499;42.648;23.270;2022-12-07T08:25:20;5.80;99.90
1021;DHT22;499;42.648;23.270;2022-12-07T08:27:48;5.80;99.90
1021;DHT22;499;42.648;23.270;2022-12-07T08:30:15;5.60;99.90
1021;DHT22;499;42.648;23.270;2022-12-07T08:32:45;5.60;99.90
1021;DHT22;499;42.648;23.270;2022-12-07T08:35:13;5.50;99.90
1021;DHT22;499;42.648;23.270;2022-12-07T08:37:40;5.60;99.90
1021;DHT22;499;42.648;23.270;2022-12-07T08:40:10;5.80;99.90
1021;DHT22;499;42.648;23.270;2022-12-07T08:42:40;5.90;99.90
1021;DHT22;499;42.648;23.270;2022-12-07T08:45:10;6.00;99.90
1021;DHT22;499;42.648;23.270;2022-12-07T08:47:40;6.10;99.90
1021;DHT22;499;42.648;23.270;2022-12-07T08:50:10;6.20;99.90
1021;DHT22;499;42.648;23.270;2022-12-07T08:52:38;6.20;99.90
1021;DHT22;499;42.648;23.270;2022-12-07T08:55:08;6.30;99.90
1021;DHT22;499;42.648;23.270;2022-12-07T08:57:36;6.40;99.90
1021;DHT22;499;42.648;23.270;2022-12-07T09:00:05;6.40;99.90
1021;DHT22;499;42.648;23.270;2022-12-07T09:02:32;6.30;99.90
1021;DHT22;499;42.648;23.270;2022-12-07T09:04:59;6.30;99.90
1021;DHT22;499;42.648;23.270;2022-12-07T09:07:31;6.30;99.90
1021;DHT22;499;42.648;23.270;2022-12-07T09:09:58;6.50;99.90
1021;DHT22;499;42.648;23.270;2022-12-07T09:12:26;6.50;99.50
1021;DHT22;499;42.648;23.270;2022-12-07T09:14:53;6.50;99.90
1021;DHT22;499;42.648;23.270;2022-12-07T09:17:20;6.60;99.90
1021;DHT22;499;42.648;23.270;2022-12-07T09:19:47;6.50;99.90
1021;DHT22;499;42.648;23.270;2022-12-07T09:22:14;6.70;99.90
1021;DHT22;499;42.648;23.270;2022-12-07T09:24:43;6.70;99.70
1021;DHT22;499;42.648;23.270;2022-12-07T09:27:11;6.50;99.50
1021;DHT22;499;42.648;23.270;2022-12-07T09:29:38;6.60;99.90
1021;DHT22;499;42.648;23.270;2022-12-07T09:32:06;6.60;99.90
1021;DHT22;499;42.648;23.270;2022-12-07T09:34:33;6.10;99.90
1021;DHT22;499;42.648;23.270;2022-12-07T09:37:00;6.80;99.90
1021;DHT22;499;42.648;23.270;2022-12-07T09:39:28;6.80;99.60
1021;DHT22;499;42.648;23.270;2022-12-07T09:41:57;6.80;99.20
1021;DHT22;499;42.648;23.270;2022-12-07T09:44:27;6.70;99.90
1021;DHT22;499;42.648;23.270;2022-12-07T09:46:55;6.70;99.90
1021;DHT22;499;42.648;23.270;2022-12-07T09:49:24;6.70;99.90
1021;DHT22;499;42.648;23.270;2022-12-07T09:52:01;6.80;99.90
1021;DHT22;499;42.648;23.270;2022-12-07T09:54:29;6.80;99.90
1021;DHT22;499;42.648;23.270;2022-12-07T09:56:59;6.90;99.90
1021;DHT22;499;42.648;23.270;2022-12-07T09:59:26;7.10;99.80
1021;DHT22;499;42.648;23.270;2022-12-07T10:01:54;7.20;98.70
1021;DHT22;499;42.648;23.270;2022-12-07T10:04:24;7.30;98.30
1021;DHT22;499;42.648;23.270;2022-12-07T10:06:52;7.40;98.10
1021;DHT22;499;42.648;23.270;2022-12-07T10:09:20;7.60;98.10
1021;DHT22;499;42.648;23.270;2022-12-07T10:12:06;7.70;95.20
1021;DHT22;499;42.648;23.270;2022-12-07T10:14:36;7.70;96.10
1021;DHT22;499;42.648;23.270;2022-12-07T10:17:29;7.90;95.20
1021;DHT22;499;42.648;23.270;2022-12-07T10:20:12;8.10;94.20
1021;DHT22;499;42.648;23.270;2022-12-07T10:22:54;8.20;92.40
1021;DHT22;499;42.648;23.270;2022-12-07T10:25:24;8.30;93.00
1021;DHT22;499;42.648;23.270;2022-12-07T10:28:00;8.30;90.70
1021;DHT22;499;42.648;23.270;2022-12-07T10:30:28;8.50;90.70
1021;DHT22;499;42.648;23.270;2022-12-07T10:32:55;8.70;88.30
1021;DHT22;499;42.648;23.270;2022-12-07T10:35:25;8.50;87.40
1021;DHT22;499;42.648;23.270;2022-12-07T10:37:54;8.70;88.30
1021;DHT22;499;42.648;23.270;2022-12-07T10:40:31;8.90;82.50
1021;DHT22;499;42.648;23.270;2022-12-07T10:43:18;8.90;82.40
1021;DHT22;499;42.648;23.270;2022-12-07T10:46:13;8.80;79.20
1021;DHT22;499;42.648;23.270;2022-12-07T10:48:54;8.90;82.50
1021;DHT22;499;42.648;23.270;2022-12-07T10:51:29;8.90;82.00
1021;DHT22;499;42.648;23.270;2022-12-07T10:54:10;8.80;81.50
1021;DHT22;499;42.648;23.270;2022-12-07T10:56:57;8.70;82.30
1021;DHT22;499;42.648;23.270;2022-12-07T10:59:50;8.50;85.00
1021;DHT22;499;42.648;23.270;2022-12-07T11:02:31;8.60;86.70
1021;DHT22;499;42.648;23.270;2022-12-07T11:05:07;8.60;85.00
1021;DHT22;499;42.648;23.270;2022-12-07T11:07:43;8.60;84.20
1021;DHT22;499;42.648;23.270;2022-12-07T11:10:19;8.50;83.00
1021;DHT22;499;42.648;23.270;2022-12-07T11:13:07;8.70;82.60
1021;DHT22;499;42.648;23.270;2022-12-07T11:15:50;8.60;82.20
1021;DHT22;499;42.648;23.270;2022-12-07T11:18:24;8.60;81.00
1021;DHT22;499;42.648;23.270;2022-12-07T11:20:58;8.50;78.60
1021;DHT22;499;42.648;23.270;2022-12-07T11:23:39;8.60;79.70
1021;DHT22;499;42.648;23.270;2022-12-07T11:26:13;8.60;78.70
1021;DHT22;499;42.648;23.270;2022-12-07T11:29:06;8.70;78.90
1021;DHT22;499;42.648;23.270;2022-12-07T11:31:47;8.80;72.80
1021;DHT22;499;42.648;23.270;2022-12-07T11:34:23;8.70;72.80
1021;DHT22;499;42.648;23.270;2022-12-07T11:36:53;8.70;76.10
1021;DHT22;499;42.648;23.270;2022-12-07T11:39:26;8.90;77.80
1021;DHT22;499;42.648;23.270;2022-12-07T11:42:00;8.90;70.60
1021;DHT22;499;42.648;23.270;2022-12-07T11:44:33;9.10;66.10
1021;DHT22;499;42.648;23.270;2022-12-07T11:47:09;9.10;65.80
1021;DHT22;499;42.648;23.270;2022-12-07T11:49:44;9.10;63.60
1021;DHT22;499;42.648;23.270;2022-12-07T11:52:18;9.10;61.70
1021;DHT22;499;42.648;23.270;2022-12-07T11:54:47;9.20;63.20
1021;DHT22;499;42.648;23.270;2022-12-07T11:57:22;9.20;61.20
1021;DHT22;499;42.648;23.270;2022-12-07T11:59:57;9.30;66.10
1021;DHT22;499;42.648;23.270;2022-12-07T12:02:33;9.40;56.20
1021;DHT22;499;42.648;23.270;2022-12-07T12:05:13;9.40;57.90
1021;DHT22;499;42.648;23.270;2022-12-07T12:07:43;9.40;58.70
1021;DHT22;499;42.648;23.270;2022-12-07T12:10:18;9.50;56.60
1021;DHT22;499;42.648;23.270;2022-12-07T12:16:03;9.60;54.80
1021;DHT22;499;42.648;23.270;2022-12-07T12:19:04;9.60;54.80
1021;DHT22;499;42.648;23.270;2022-12-07T12:21:37;9.60;57.70
1021;DHT22;499;42.648;23.270;2022-12-07T12:24:10;9.70;52.40
1021;DHT22;499;42.648;23.270;2022-12-07T12:26:49;9.80;53.10
1021;DHT22;499;42.648;23.270;2022-12-07T12:29:22;9.80;50.50
1021;DHT22;499;42.648;23.270;2022-12-07T12:32:08;9.70;50.40
1021;DHT22;499;42.648;23.270;2022-12-07T12:34:41;9.60;53.60
1021;DHT22;499;42.648;23.270;2022-12-07T12:37:40;9.60;54.80
1021;DHT22;499;42.648;23.270;2022-12-07T12:40:39;9.60;51.90
1021;DHT22;499;42.648;23.270;2022-12-07T12:49:37;9.80;54.50
1021;DHT22;499;42.648;23.270;2022-12-07T12:58:42;10.00;49.40
1021;DHT22;499;42.648;23.270;2022-12-07T13:01:41;10.00;50.80
1021;DHT22;499;42.648;23.270;2022-12-07T13:07:13;10.20;51.30
1021;DHT22;499;42.648;23.270;2022-12-07T13:10:02;10.40;46.40
1021;DHT22;499;42.648;23.270;2022-12-07T13:12:31;10.30;44.70
1021;DHT22;499;42.648;23.270;2022-12-07T13:14:59;10.20;46.10
1021;DHT22;499;42.648;23.270;2022-12-07T13:18:01;10.20;47.70
1021;DHT22;499;42.648;23.270;2022-12-07T13:20:54;10.10;49.50
1021;DHT22;499;42.648;23.270;2022-12-07T13:23:28;10.10;49.80
1021;DHT22;499;42.648;23.270;2022-12-07T13:26:13;10.10;49.00
1021;DHT22;499;42.648;23.270;2022-12-07T13:28:45;10.10;47.00
1021;DHT22;499;42.648;23.270;2022-12-07T13:31:31;10.00;46.20
1021;DHT22;499;42.648;23.270;2022-12-07T13:33:59;10.00;45.10
1021;DHT22;499;42.648;23.270;2022-12-07T13:36:29;9.90;47.30
1021;DHT22;499;42.648;23.270;2022-12-07T13:39:11;9.70;50.80
1021;DHT22;499;42.648;23.270;2022-12-07T13:41:44;9.70;49.00
1021;DHT22;499;42.648;23.270;2022-12-07T13:44:14;9.60;51.00
1021;DHT22;499;42.648;23.270;2022-12-07T13:46:47;9.60;54.30
1021;DHT22;499;42.648;23.270;2022-12-07T13:49:19;9.60;54.80
1021;DHT22;499;42.648;23.270;2022-12-07T13:51:47;9.70;56.30
1021;DHT22;499;42.648;23.270;2022-12-07T13:54:14;9.70;56.50
1021;DHT22;499;42.648;23.270;2022-12-07T13:56:42;9.60;59.30
1021;DHT22;499;42.648;23.270;2022-12-07T13:59:14;9.60;58.10
1021;DHT22;499;42.648;23.270;2022-12-07T14:01:41;9.60;59.20
1021;DHT22;499;42.648;23.270;2022-12-07T14:04:32;9.60;60.20
1021;DHT22;499;42.648;23.270;2022-12-07T14:07:00;9.60;59.20
1021;DHT22;499;42.648;23.270;2022-12-07T14:09:29;9.50;61.70
1021;DHT22;499;42.648;23.270;2022-12-07T14:11:57;9.50;61.20
1021;DHT22;499;42.648;23.270;2022-12-07T14:14:29;9.40;63.90
1021;DHT22;499;42.648;23.270;2022-12-07T14:16:59;9.40;65.50
1021;DHT22;499;42.648;23.270;2022-12-07T14:19:42;9.30;69.50
1021;DHT22;499;42.648;23.270;2022-12-07T14:22:23;9.40;68.80
1021;DHT22;499;42.648;23.270;2022-12-07T14:24:57;9.20;70.80
1021;DHT22;499;42.648;23.270;2022-12-07T14:27:24;9.20;73.30
1021;DHT22;499;42.648;23.270;2022-12-07T14:30:01;9.00;73.10
1021;DHT22;499;42.648;23.270;2022-12-07T14:32:29;8.80;72.70
1021;DHT22;499;42.648;23.270;2022-12-07T14:34:59;8.70;72.90
1021;DHT22;499;42.648;23.270;2022-12-07T14:37:28;8.60;77.30
1021;DHT22;499;42.648;23.270;2022-12-07T14:39:55;8.50;77.40
1021;DHT22;499;42.648;23.270;2022-12-07T14:42:25;8.50;78.70
1021;DHT22;499;42.648;23.270;2022-12-07T14:44:53;8.10;79.00
1021;DHT22;499;42.648;23.270;2022-12-07T14:47:22;8.10;82.30
1021;DHT22;499;42.648;23.270;2022-12-07T14:49:49;7.90;86.10
1021;DHT22;499;42.648;23.270;2022-12-07T14:52:19;7.80;88.40
1021;DHT22;499;42.648;23.270;2022-12-07T14:54:47;7.60;90.10
1021;DHT22;499;42.648;23.270;2022-12-07T14:57:14;7.60;90.90
1021;DHT22;499;42.648;23.270;2022-12-07T14:59:41;7.50;91.40
1021;DHT22;499;42.648;23.270;2022-12-07T15:02:10;7.30;92.00
1021;DHT22;499;42.648;23.270;2022-12-07T15:04:39;7.30;92.40
1021;DHT22;499;42.648;23.270;2022-12-07T15:07:12;7.30;93.70
1021;DHT22;499;42.648;23.270;2022-12-07T15:09:41;7.30;93.50
1021;DHT22;499;42.648;23.270;2022-12-07T15:12:08;7.20;93.80
1021;DHT22;499;42.648;23.270;2022-12-07T15:14:35;7.10;94.10
1021;DHT22;499;42.648;23.270;2022-12-07T15:17:02;7.10;94.00
1021;DHT22;499;42.648;23.270;2022-12-07T15:19:30;7.00;94.10
1021;DHT22;499;42.648;23.270;2022-12-07T15:21:58;6.90;94.30
1021;DHT22;499;42.648;23.270;2022-12-07T15:24:26;6.80;95.60
1021;DHT22;499;42.648;23.270;2022-12-07T15:26:53;6.70;96.20
1021;DHT22;499;42.648;23.270;2022-12-07T15:29:20;6.60;97.20
1021;DHT22;499;42.648;23.270;2022-12-07T15:31:48;6.50;97.40
1021;DHT22;499;42.648;23.270;2022-12-07T15:34:16;6.50;98.00
1021;DHT22;499;42.648;23.270;2022-12-07T15:36:43;6.40;98.50
1021;DHT22;499;42.648;23.270;2022-12-07T15:39:11;6.40;99.00
1021;DHT22;499;42.648;23.270;2022-12-07T15:41:38;6.40;99.30
1021;DHT22;499;42.648;23.270;2022-12-07T15:44:05;6.30;99.70
1021;DHT22;499;42.648;23.270;2022-12-07T15:46:50;6.20;99.90
1021;DHT22;499;42.648;23.270;2022-12-07T15:49:18;6.10;99.90
1021;DHT22;499;42.648;23.270;2022-12-07T15:51:45;6.00;99.90
1021;DHT22;499;42.648;23.270;2022-12-07T15:54:18;6.10;99.90
1021;DHT22;499;42.648;23.270;2022-12-07T15:56:45;6.10;99.90
1021;DHT22;499;42.648;23.270;2022-12-07T15:59:12;6.00;99.90
1021;DHT22;499;42.648;23.270;2022-12-07T16:01:40;6.10;99.90
1021;DHT22;499;42.648;23.270;2022-12-07T16:04:07;6.00;99.90
1021;DHT22;499;42.648;23.270;2022-12-07T16:06:34;6.10;99.90
1021;DHT22;499;42.648;23.270;2022-12-07T16:09:01;6.00;99.90
1021;DHT22;499;42.648;23.270;2022-12-07T16:11:30;5.90;99.90
1021;DHT22;499;42.648;23.270;2022-12-07T16:13:57;5.90;99.90
1021;DHT22;499;42.648;23.270;2022-12-07T16:16:25;5.90;99.90
1021;DHT22;499;42.648;23.270;2022-12-07T16:18:53;5.80;99.90
1021;DHT22;499;42.648;23.270;2022-12-07T16:21:20;5.80;99.90
1021;DHT22;499;42.648;23.270;2022-12-07T16:23:47;5.80;99.90
1021;DHT22;499;42.648;23.270;2022-12-07T16:26:16;5.80;99.90
1021;DHT22;499;42.648;23.270;2022-12-07T16:28:48;5.80;99.90
1021;DHT22;499;42.648;23.270;2022-12-07T16:31:18;5.80;99.90
1021;DHT22;499;42.648;23.270;2022-12-07T16:33:45;5.80;99.90
1021;DHT22;499;42.648;23.270;2022-12-07T16:36:13;5.80;99.90
1021;DHT22;499;42.648;23.270;2022-12-07T16:38:42;5.70;99.90
1021;DHT22;499;42.648;23.270;2022-12-07T16:41:10;5.70;99.90
1021;DHT22;499;42.648;23.270;2022-12-07T16:43:37;5.70;99.90
1021;DHT22;499;42.648;23.270;2022-12-07T16:46:07;5.80;99.90
1021;DHT22;499;42.648;23.270;2022-12-07T16:48:36;5.70;99.90
1021;DHT22;499;42.648;23.270;2022-12-07T16:51:04;5.70;99.90
1021;DHT22;499;42.648;23.270;2022-12-07T16:53:32;5.70;99.90
1021;DHT22;499;42.648;23.270;2022-12-07T16:55:59;5.60;99.90
1021;DHT22;499;42.648;23.270;2022-12-07T16:58:26;5.60;99.90
1021;DHT22;499;42.648;23.270;2022-12-07T17:00:53;5.60;99.90
1021;DHT22;499;42.648;23.270;2022-12-07T17:03:22;5.60;99.90
1021;DHT22;499;42.648;23.270;2022-12-07T17:05:49;5.50;99.90